createdAt,value
2022-09-18T00:00:09.302Z,99011.05
2022-09-18T00:02:57.182Z,99021.35
2022-09-18T00:05:25.150Z,99015.79
2022-09-18T00:07:53.090Z,99017.85
2022-09-18T00:10:20.968Z,99015.48
2022-09-18T00:12:48.911Z,99014.59
2022-09-18T00:15:16.845Z,99013.20
2022-09-18T00:17:44.719Z,99010.37
2022-09-18T00:20:13.240Z,99013.70
2022-09-18T00:22:41.151Z,99013.52
2022-09-18T00:25:09.358Z,99015.11
2022-09-18T00:27:37.355Z,99010.83
2022-09-18T00:30:06.251Z,99008.18
2022-09-18T00:32:34.040Z,99016.59
2022-09-18T00:35:02.054Z,99024.53
2022-09-18T00:37:30.079Z,99027.33
2022-09-18T00:39:57.848Z,99026.90
2022-09-18T00:42:25.740Z,99027.06
2022-09-18T00:44:53.595Z,99026.96
2022-09-18T00:47:22.980Z,99023.21
2022-09-18T00:49:52.879Z,99016.07
2022-09-18T00:52:22.051Z,99016.61
2022-09-18T00:54:52.707Z,99017.52
2022-09-18T00:57:22.399Z,99026.34
2022-09-18T00:59:51.792Z,99032.36
2022-09-18T01:02:19.682Z,99033.18
2022-09-18T01:04:48.561Z,99037.98
2022-09-18T01:07:21.147Z,99047.34
2022-09-18T01:09:56.271Z,99047.70
2022-09-18T01:12:30.436Z,99051.00
2022-09-18T01:15:04.312Z,99054.34
2022-09-18T01:17:35.447Z,99060.35
2022-09-18T01:20:17.214Z,99057.20
2022-09-18T01:22:52.797Z,99057.79
2022-09-18T01:25:28.914Z,99061.71
2022-09-18T01:28:07.447Z,99056.77
2022-09-18T01:30:37.370Z,99064.97
2022-09-18T01:33:07.813Z,99064.42
2022-09-18T01:35:42.034Z,99056.00
2022-09-18T01:38:13.064Z,99075.80
2022-09-18T01:40:44.192Z,99090.71
2022-09-18T01:43:14.307Z,99100.70
2022-09-18T01:45:44.864Z,99103.21
2022-09-18T01:48:14.763Z,99109.17
2022-09-18T01:50:46.171Z,99122.55
2022-09-18T01:53:17.323Z,99121.77
2022-09-18T01:55:48.591Z,99122.96
2022-09-18T01:58:18.380Z,99117.15
2022-09-18T02:00:48.655Z,99123.73
2022-09-18T02:03:20.738Z,99124.34
2022-09-18T02:05:56.079Z,99130.36
2022-09-18T02:08:27.422Z,99136.26
2022-09-18T02:10:57.810Z,99142.11
2022-09-18T02:13:28.737Z,99142.93
2022-09-18T02:16:01.086Z,99142.81
2022-09-18T02:18:31.558Z,99134.09
2022-09-18T02:21:00.340Z,99149.41
2022-09-18T02:23:29.350Z,99160.89
2022-09-18T02:25:58.844Z,99163.21
2022-09-18T02:28:29.586Z,99184.33
2022-09-18T02:30:58.870Z,99186.77
2022-09-18T02:33:28.083Z,99187.27
2022-09-18T02:36:09.667Z,99185.58
2022-09-18T02:38:44.310Z,99189.96
2022-09-18T02:41:17.586Z,99183.02
2022-09-18T02:43:51.798Z,99188.68
2022-09-18T02:46:24.768Z,99194.02
2022-09-18T02:48:58.098Z,99182.67
2022-09-18T02:51:31.062Z,99190.55
2022-09-18T02:54:04.047Z,99204.69
2022-09-18T02:56:37.250Z,99208.42
2022-09-18T02:59:09.845Z,99206.70
2022-09-18T03:01:41.777Z,99214.58
2022-09-18T03:04:11.717Z,99210.45
2022-09-18T03:06:39.631Z,99216.70
2022-09-18T03:09:07.531Z,99220.49
2022-09-18T03:11:36.549Z,99227.08
2022-09-18T03:14:04.465Z,99230.30
2022-09-18T03:16:32.355Z,99243.34
2022-09-18T03:19:00.763Z,99248.02
2022-09-18T03:21:28.914Z,99246.45
2022-09-18T03:23:56.815Z,99264.66
2022-09-18T03:26:24.665Z,99270.45
2022-09-18T03:28:52.508Z,99275.05
2022-09-18T03:31:20.339Z,99277.11
2022-09-18T03:33:48.301Z,99284.15
2022-09-18T03:36:16.197Z,99289.69
2022-09-18T03:38:44.246Z,99311.23
2022-09-18T03:41:11.951Z,99323.29
2022-09-18T03:43:39.742Z,99316.37
2022-09-18T03:46:07.648Z,99332.13
2022-09-18T03:48:35.551Z,99330.89
2022-09-18T03:51:03.603Z,99340.02
2022-09-18T03:53:31.343Z,99355.95
2022-09-18T03:55:59.222Z,99370.34
2022-09-18T03:58:27.110Z,99364.21
2022-09-18T04:00:54.952Z,99382.02
2022-09-18T04:03:22.862Z,99391.99
2022-09-18T04:05:50.746Z,99380.83
2022-09-18T04:08:18.771Z,99390.48
2022-09-18T04:10:47.897Z,99375.92
2022-09-18T04:13:15.790Z,99395.19
2022-09-18T04:15:44.694Z,99405.11
2022-09-18T04:18:12.636Z,99410.30
2022-09-18T04:20:40.606Z,99417.46
2022-09-18T04:23:10.921Z,99419.59
2022-09-18T04:25:38.747Z,99425.36
2022-09-18T04:28:06.730Z,99429.13
2022-09-18T04:30:34.791Z,99461.85
2022-09-18T04:33:03.194Z,99471.04
2022-09-18T04:35:31.196Z,99480.07
2022-09-18T04:37:58.961Z,99494.29
2022-09-18T04:40:26.868Z,99487.82
2022-09-18T04:42:54.791Z,99498.38
2022-09-18T04:45:22.664Z,99491.92
2022-09-18T04:47:50.538Z,99496.09
2022-09-18T04:50:18.461Z,99510.27
2022-09-18T04:52:46.224Z,99509.64
2022-09-18T04:55:15.031Z,99517.33
2022-09-18T04:57:42.986Z,99523.81
2022-09-18T05:00:11.709Z,99526.11
2022-09-18T05:02:41.035Z,99519.90
2022-09-18T05:05:09.428Z,99523.71
2022-09-18T05:07:37.295Z,99522.34
2022-09-18T05:10:08.193Z,99531.16
2022-09-18T05:12:36.234Z,99537.38
2022-09-18T05:15:05.450Z,99530.77
2022-09-18T05:17:33.285Z,99532.23
2022-09-18T05:20:01.447Z,99536.79
2022-09-18T05:22:30.379Z,99547.38
2022-09-18T05:24:58.262Z,99554.00
2022-09-18T05:27:27.124Z,99559.88
2022-09-18T05:29:55.323Z,99569.04
2022-09-18T05:32:23.231Z,99569.89
2022-09-18T05:34:51.097Z,99569.50
2022-09-18T05:37:19.097Z,99572.80
2022-09-18T05:39:47.063Z,99572.80
2022-09-18T05:42:14.973Z,99588.61
2022-09-18T05:44:42.924Z,99588.68
2022-09-18T05:47:10.842Z,99593.27
2022-09-18T05:49:39.070Z,99599.81
2022-09-18T05:52:07.019Z,99602.47
2022-09-18T05:54:36.011Z,99602.77
2022-09-18T05:57:04.085Z,99601.85
2022-09-18T05:59:31.984Z,99601.46
2022-09-18T06:01:59.903Z,99609.68
2022-09-18T06:04:27.869Z,99602.42
2022-09-18T06:06:56.291Z,99601.41
2022-09-18T06:09:24.260Z,99601.60
2022-09-18T06:11:52.166Z,99596.98
2022-09-18T06:14:19.980Z,99601.02
2022-09-18T06:16:47.793Z,99596.14
2022-09-18T06:19:15.608Z,99602.65
2022-09-18T06:21:43.490Z,99608.85
2022-09-18T06:24:11.363Z,99598.92
2022-09-18T06:26:39.214Z,99590.16
2022-09-18T06:29:07.008Z,99580.04
2022-09-18T06:31:34.883Z,99572.65
2022-09-18T06:34:02.793Z,99575.33
2022-09-18T06:36:30.564Z,99585.13
2022-09-18T06:38:58.570Z,99588.20
2022-09-18T06:41:26.269Z,99598.45
2022-09-18T06:43:54.206Z,99614.83
2022-09-18T06:46:24.104Z,99608.83
2022-09-18T06:48:51.981Z,99607.61
2022-09-18T06:51:20.150Z,99625.34
2022-09-18T06:53:48.179Z,99619.76
2022-09-18T06:56:16.082Z,99616.88
2022-09-18T06:58:44.652Z,99629.70
2022-09-18T07:01:15.435Z,99633.39
2022-09-18T07:03:43.364Z,99628.20
2022-09-18T07:06:11.272Z,99619.77
2022-09-18T07:08:39.199Z,99626.29
2022-09-18T07:11:07.159Z,99622.79
2022-09-18T07:13:36.993Z,99645.13
2022-09-18T07:16:05.252Z,99635.63
2022-09-18T07:18:33.162Z,99636.39
2022-09-18T07:21:01.478Z,99659.55
2022-09-18T07:23:30.991Z,99654.31
2022-09-18T07:25:59.608Z,99647.95
2022-09-18T07:28:27.963Z,99647.90
2022-09-18T07:30:56.164Z,99642.48
2022-09-18T07:33:24.079Z,99646.45
2022-09-18T07:35:52.173Z,99643.96
2022-09-18T07:38:20.171Z,99632.79
2022-09-18T07:40:47.988Z,99634.88
2022-09-18T07:43:15.887Z,99633.79
2022-09-18T07:45:44.832Z,99622.21
2022-09-18T07:48:13.271Z,99640.58
2022-09-18T07:50:42.140Z,99641.42
2022-09-18T07:53:10.116Z,99645.13
2022-09-18T07:55:38.283Z,99648.23
2022-09-18T07:58:06.859Z,99647.09
2022-09-18T08:00:36.477Z,99633.34
2022-09-18T08:03:05.223Z,99650.38
2022-09-18T08:05:33.469Z,99648.52
2022-09-18T08:08:04.666Z,99663.52
2022-09-18T08:10:33.356Z,99674.67
2022-09-18T08:13:02.588Z,99658.27
2022-09-18T08:15:30.966Z,99658.19
2022-09-18T08:17:58.774Z,99658.11
2022-09-18T08:20:26.734Z,99670.10
2022-09-18T08:22:54.674Z,99668.47
2022-09-18T08:25:22.703Z,99673.36
2022-09-18T08:27:50.556Z,99675.01
2022-09-18T08:30:18.550Z,99669.29
2022-09-18T08:32:46.415Z,99687.39
2022-09-18T08:35:14.811Z,99680.35
2022-09-18T08:37:48.245Z,99678.41
2022-09-18T08:40:17.667Z,99661.02
2022-09-18T08:42:51.210Z,99662.31
2022-09-18T08:45:30.488Z,99649.21
2022-09-18T08:48:00.335Z,99640.13
2022-09-18T08:50:29.141Z,99656.06
2022-09-18T08:52:59.281Z,99657.91
2022-09-18T08:55:30.491Z,99661.81
2022-09-18T08:58:01.250Z,99665.92
2022-09-18T09:00:31.913Z,99670.38
2022-09-18T09:03:03.969Z,99683.36
2022-09-18T09:05:35.587Z,99683.39
2022-09-18T09:08:17.516Z,99693.70
2022-09-18T09:10:50.075Z,99695.75
2022-09-18T09:13:37.683Z,99710.48
2022-09-18T09:16:11.236Z,99704.36
2022-09-18T09:18:45.312Z,99695.48
2022-09-18T09:21:17.989Z,99689.51
2022-09-18T09:23:52.709Z,99693.11
2022-09-18T09:26:21.903Z,99706.08
2022-09-18T09:28:53.460Z,99698.14
2022-09-18T09:31:24.229Z,99707.98
2022-09-18T09:33:56.140Z,99709.79
2022-09-18T09:36:27.488Z,99698.46
2022-09-18T09:38:58.824Z,99706.50
2022-09-18T09:41:30.510Z,99712.27
2022-09-18T09:44:02.504Z,99710.55
2022-09-18T09:46:42.060Z,99705.33
2022-09-18T09:49:11.966Z,99732.29
2022-09-18T09:51:45.184Z,99702.52
2022-09-18T09:54:13.010Z,99730.42
2022-09-18T09:56:43.516Z,99729.48
2022-09-18T09:59:17.312Z,99734.89
2022-09-18T10:01:48.458Z,99739.65
2022-09-18T10:04:24.608Z,99732.50
2022-09-18T10:06:56.630Z,99748.31
2022-09-18T10:09:31.606Z,99742.17
2022-09-18T10:12:03.683Z,99751.52
2022-09-18T10:14:34.528Z,99745.81
2022-09-18T10:17:04.286Z,99767.02
2022-09-18T10:19:35.781Z,99779.55
2022-09-18T10:22:06.957Z,99771.80
2022-09-18T10:24:40.830Z,99768.13
2022-09-18T10:27:09.724Z,99774.20
2022-09-18T10:29:37.616Z,99778.19
2022-09-18T10:32:06.407Z,99786.66
2022-09-18T10:34:39.390Z,99787.23
2022-09-18T10:37:13.164Z,99794.06
2022-09-18T10:39:47.900Z,99797.14
2022-09-18T10:42:17.712Z,99799.16
2022-09-18T10:44:49.807Z,99804.88
2022-09-18T10:47:21.452Z,99820.66
2022-09-18T10:49:50.639Z,99808.39
2022-09-18T10:52:26.386Z,99801.15
2022-09-18T10:55:02.043Z,99814.34
2022-09-18T10:57:31.011Z,99822.77
2022-09-18T10:59:59.195Z,99830.31
2022-09-18T11:02:28.974Z,99823.42
2022-09-18T11:04:57.226Z,99825.98
2022-09-18T11:07:26.030Z,99820.89
2022-09-18T11:09:54.114Z,99822.35
2022-09-18T11:12:23.226Z,99834.19
2022-09-18T11:15:01.690Z,99821.36
2022-09-18T11:17:31.298Z,99826.77
2022-09-18T11:20:00.791Z,99830.10
2022-09-18T11:22:34.688Z,99839.80
2022-09-18T11:25:16.819Z,99840.30
2022-09-18T11:27:45.978Z,99853.21
2022-09-18T11:30:15.411Z,99837.42
2022-09-18T11:32:45.451Z,99849.16
2022-09-18T11:35:15.600Z,99839.95
2022-09-18T11:37:46.545Z,99836.77
2022-09-18T11:40:19.606Z,99842.05
2022-09-18T11:42:49.165Z,99844.69
2022-09-18T11:45:22.643Z,99854.95
2022-09-18T11:47:54.391Z,99846.06
2022-09-18T11:50:24.161Z,99856.14
2022-09-18T11:52:53.266Z,99846.51
2022-09-18T11:55:26.000Z,99859.82
2022-09-18T11:57:56.107Z,99859.52
2022-09-18T12:00:26.156Z,99853.02
2022-09-18T12:02:59.271Z,99853.77
2022-09-18T12:05:29.583Z,99857.15
2022-09-18T12:07:59.898Z,99854.45
2022-09-18T12:10:32.153Z,99860.04
2022-09-18T12:13:09.722Z,99859.71
2022-09-18T12:15:39.522Z,99862.02
2022-09-18T12:18:11.169Z,99856.45
2022-09-18T12:20:41.391Z,99870.36
2022-09-18T12:23:12.259Z,99868.20
2022-09-18T12:25:43.160Z,99864.57
2022-09-18T12:28:16.536Z,99868.66
2022-09-18T12:30:49.354Z,99888.90
2022-09-18T12:33:22.642Z,99879.70
2022-09-18T12:36:02.290Z,99886.30
2022-09-18T12:38:37.441Z,99878.15
2022-09-18T12:41:12.602Z,99889.17
2022-09-18T12:43:47.631Z,99902.70
2022-09-18T12:46:35.492Z,99907.20
2022-09-18T12:49:13.055Z,99901.42
2022-09-18T12:51:43.486Z,99910.12
2022-09-18T12:54:23.424Z,99895.83
2022-09-18T12:57:00.131Z,99910.39
2022-09-18T12:59:36.380Z,99912.55
2022-09-18T13:02:17.222Z,99914.39
2022-09-18T13:04:47.966Z,99914.55
2022-09-18T13:07:19.735Z,99915.27
2022-09-18T13:09:50.146Z,99927.58
2022-09-18T13:12:20.903Z,99922.35
2022-09-18T13:14:50.790Z,99925.24
2022-09-18T13:17:20.912Z,99928.77
2022-09-18T13:19:52.695Z,99936.95
2022-09-18T13:22:21.962Z,99936.45
2022-09-18T13:24:55.319Z,99927.47
2022-09-18T13:27:24.859Z,99937.16
2022-09-18T13:29:58.386Z,99934.27
2022-09-18T13:32:38.053Z,99937.24
2022-09-18T13:35:14.571Z,99929.21
2022-09-18T13:37:43.763Z,99938.69
2022-09-18T13:40:27.183Z,99933.39
2022-09-18T13:42:55.127Z,99935.11
2022-09-18T13:45:24.557Z,99943.73
2022-09-18T13:48:01.058Z,99935.77
2022-09-18T13:50:30.026Z,99954.79
2022-09-18T13:52:58.841Z,99947.74
2022-09-18T13:55:38.045Z,99945.10
2022-09-18T13:58:23.907Z,99956.52
2022-09-18T14:00:51.957Z,99960.16
2022-09-18T14:03:36.875Z,99956.31
2022-09-18T14:06:28.059Z,99958.73
2022-09-18T14:08:55.921Z,99954.25
2022-09-18T14:11:24.640Z,99966.95
2022-09-18T14:13:54.739Z,99975.79
2022-09-18T14:16:30.903Z,99971.28
2022-09-18T14:19:01.650Z,99978.05
2022-09-18T14:21:31.592Z,99981.94
2022-09-18T14:24:04.884Z,99990.08
2022-09-18T14:26:50.581Z,99995.13
2022-09-18T14:29:18.965Z,99996.30
2022-09-18T14:31:47.968Z,100004.74
2022-09-18T14:34:18.342Z,100003.73
2022-09-18T14:36:47.783Z,100005.29
2022-09-18T14:39:25.936Z,100007.92
2022-09-18T14:41:54.731Z,100010.52
2022-09-18T14:44:23.014Z,100016.04
2022-09-18T14:46:55.070Z,100013.35
2022-09-18T14:49:27.080Z,100013.10
2022-09-18T14:52:03.928Z,100004.02
2022-09-18T14:54:40.396Z,100014.55
2022-09-18T14:57:12.946Z,100024.08
2022-09-18T14:59:40.906Z,100036.99
2022-09-18T15:02:18.319Z,100037.30
2022-09-18T15:04:46.274Z,100049.42
2022-09-18T15:07:17.255Z,100047.35
2022-09-18T15:09:46.033Z,100044.69
2022-09-18T15:12:16.502Z,100058.96
2022-09-18T15:14:47.636Z,100072.61
2022-09-18T15:17:18.499Z,100060.53
2022-09-18T15:19:56.956Z,100085.25
2022-09-18T15:22:25.303Z,100073.58
2022-09-18T15:24:53.268Z,100074.23
2022-09-18T15:27:22.215Z,100071.13
2022-09-18T15:29:52.461Z,100073.61
2022-09-18T15:32:22.645Z,100080.69
2022-09-18T15:34:51.755Z,100081.95
2022-09-18T15:37:21.058Z,100092.44
2022-09-18T15:39:59.211Z,100088.19
2022-09-18T15:42:29.291Z,100092.39
2022-09-18T15:45:13.342Z,100101.36
2022-09-18T15:47:42.693Z,100103.93
2022-09-18T15:50:29.399Z,100109.98
2022-09-18T15:53:02.152Z,100113.38
2022-09-18T15:55:32.579Z,100117.33
2022-09-18T15:58:01.383Z,100119.54
2022-09-18T16:00:30.589Z,100117.14
2022-09-18T16:02:59.433Z,100125.48
2022-09-18T16:05:28.435Z,100122.60
2022-09-18T16:07:57.621Z,100119.25
2022-09-18T16:10:44.857Z,100125.38
2022-09-18T16:13:26.799Z,100130.86
2022-09-18T16:16:15.321Z,100134.86
2022-09-18T16:18:51.770Z,100141.29
2022-09-18T16:21:19.874Z,100141.08
2022-09-18T16:23:50.090Z,100140.08
2022-09-18T16:26:23.969Z,100142.71
2022-09-18T16:28:53.162Z,100150.36
2022-09-18T16:31:22.010Z,100165.08
2022-09-18T16:33:51.892Z,100163.20
2022-09-18T16:36:25.075Z,100163.27
2022-09-18T16:38:53.014Z,100164.30
2022-09-18T16:41:21.202Z,100175.20
2022-09-18T16:43:49.152Z,100181.43
2022-09-18T16:46:20.056Z,100182.45
2022-09-18T16:48:48.209Z,100186.95
2022-09-18T16:51:16.203Z,100190.69
2022-09-18T16:53:44.310Z,100195.84
2022-09-18T16:56:14.453Z,100189.25
2022-09-18T16:58:43.166Z,100206.92
2022-09-18T17:01:11.182Z,100213.98
2022-09-18T17:03:39.235Z,100216.48
2022-09-18T17:06:07.341Z,100219.30
2022-09-18T17:08:36.568Z,100229.03
2022-09-18T17:11:05.785Z,100229.93
2022-09-18T17:13:33.722Z,100230.23
2022-09-18T17:16:02.215Z,100233.36
2022-09-18T17:18:30.466Z,100239.02
2022-09-18T17:21:01.739Z,100248.83
2022-09-18T17:23:30.051Z,100242.20
2022-09-18T17:26:03.499Z,100253.92
2022-09-18T17:28:31.411Z,100254.14
2022-09-18T17:30:59.263Z,100269.15
2022-09-18T17:33:27.174Z,100276.90
2022-09-18T17:35:54.968Z,100278.25
2022-09-18T17:38:22.927Z,100282.63
2022-09-18T17:40:58.057Z,100287.83
2022-09-18T17:43:26.127Z,100290.46
2022-09-18T17:45:55.162Z,100293.15
2022-09-18T17:48:23.263Z,100305.56
2022-09-18T17:50:56.348Z,100308.32
2022-09-18T17:53:24.242Z,100305.45
2022-09-18T17:55:52.738Z,100310.38
2022-09-18T17:58:20.563Z,100308.05
2022-09-18T18:00:48.419Z,100313.06
2022-09-18T18:03:16.423Z,100318.01
2022-09-18T18:05:50.701Z,100329.66
2022-09-18T18:08:19.153Z,100322.01
2022-09-18T18:10:47.243Z,100323.73
2022-09-18T18:13:18.367Z,100332.42
2022-09-18T18:15:47.570Z,100332.63
2022-09-18T18:18:15.509Z,100336.89
2022-09-18T18:20:49.717Z,100342.80
2022-09-18T18:23:17.541Z,100340.78
2022-09-18T18:25:46.628Z,100339.55
2022-09-18T18:28:14.448Z,100347.85
2022-09-18T18:30:45.428Z,100348.48
2022-09-18T18:33:14.196Z,100346.99
2022-09-18T18:35:42.293Z,100356.09
2022-09-18T18:38:10.161Z,100357.37
2022-09-18T18:40:39.833Z,100365.57
2022-09-18T18:43:11.007Z,100370.66
2022-09-18T18:45:38.722Z,100376.39
2022-09-18T18:48:09.825Z,100379.60
2022-09-18T18:50:41.980Z,100382.08
2022-09-18T18:53:09.949Z,100383.13
2022-09-18T18:55:37.819Z,100385.58
2022-09-18T18:58:05.771Z,100394.34
2022-09-18T19:00:34.022Z,100390.20
2022-09-18T19:03:01.899Z,100389.94
2022-09-18T19:05:30.191Z,100389.23
2022-09-18T19:07:58.487Z,100394.81
2022-09-18T19:10:27.279Z,100389.83
2022-09-18T19:12:57.270Z,100391.85
2022-09-18T19:15:29.148Z,100394.80
2022-09-18T19:17:58.826Z,100395.80
2022-09-18T19:20:30.176Z,100395.50
2022-09-18T19:22:59.439Z,100400.89
2022-09-18T19:25:29.732Z,100402.09
2022-09-18T19:27:59.875Z,100407.73
2022-09-18T19:30:28.594Z,100410.60
2022-09-18T19:33:00.377Z,100412.70
2022-09-18T19:35:30.171Z,100409.13
2022-09-18T19:37:59.467Z,100412.19
2022-09-18T19:40:31.725Z,100414.98
2022-09-18T19:43:02.486Z,100420.27
2022-09-18T19:45:36.913Z,100421.99
2022-09-18T19:48:08.251Z,100424.56
2022-09-18T19:50:38.397Z,100439.04
2022-09-18T19:53:06.475Z,100433.38
2022-09-18T19:55:34.303Z,100433.39
2022-09-18T19:58:02.499Z,100440.00
2022-09-18T20:00:30.835Z,100434.10
2022-09-18T20:02:58.830Z,100437.27
2022-09-18T20:05:26.799Z,100434.05
2022-09-18T20:07:54.682Z,100429.45
2022-09-18T20:10:23.876Z,100435.38
2022-09-18T20:12:53.386Z,100433.88
2022-09-18T20:15:21.234Z,100436.13
2022-09-18T20:17:49.076Z,100435.31
2022-09-18T20:20:17.146Z,100439.50
2022-09-18T20:22:45.040Z,100440.13
2022-09-18T20:25:12.962Z,100445.95
2022-09-18T20:27:41.919Z,100446.09
2022-09-18T20:30:12.185Z,100447.35
2022-09-18T20:32:40.551Z,100445.48
2022-09-18T20:35:09.398Z,100455.23
2022-09-18T20:37:37.276Z,100457.36
2022-09-18T20:40:07.254Z,100464.21
2022-09-18T20:42:35.175Z,100465.48
2022-09-18T20:45:03.227Z,100459.95
2022-09-18T20:47:34.263Z,100464.13
2022-09-18T20:50:06.147Z,100465.23
2022-09-18T20:52:35.642Z,100469.92
2022-09-18T20:55:05.175Z,100465.95
2022-09-18T20:57:33.014Z,100468.08
2022-09-18T21:00:01.994Z,100471.98
2022-09-18T21:02:34.684Z,100477.01
2022-09-18T21:05:05.406Z,100478.80
2022-09-18T21:07:33.238Z,100481.32
2022-09-18T21:10:01.173Z,100486.06
2022-09-18T21:12:37.719Z,100485.80
2022-09-18T21:15:07.433Z,100488.37
2022-09-18T21:17:37.866Z,100489.75
2022-09-18T21:20:06.318Z,100486.20
2022-09-18T21:22:54.400Z,100484.77
2022-09-18T21:25:24.208Z,100486.38
2022-09-18T21:27:54.132Z,100490.19
2022-09-18T21:30:22.288Z,100490.39
2022-09-18T21:32:52.613Z,100491.72
2022-09-18T21:35:23.414Z,100491.95
2022-09-18T21:37:53.262Z,100498.72
2022-09-18T21:40:21.167Z,100493.41
2022-09-18T21:42:48.886Z,100491.30
2022-09-18T21:45:20.135Z,100495.54
2022-09-18T21:47:49.619Z,100495.70
2022-09-18T21:50:18.222Z,100491.92
2022-09-18T21:52:46.186Z,100494.92
2022-09-18T21:55:14.236Z,100493.81
2022-09-18T21:57:42.249Z,100491.11
2022-09-18T22:00:11.683Z,100496.75
2022-09-18T22:02:42.699Z,100497.98
2022-09-18T22:05:11.568Z,100496.69
2022-09-18T22:07:40.248Z,100495.91
2022-09-18T22:10:09.131Z,100498.05
2022-09-18T22:12:38.441Z,100501.77
2022-09-18T22:15:07.530Z,100501.99
2022-09-18T22:17:35.346Z,100502.39
2022-09-18T22:20:03.647Z,100502.08
2022-09-18T22:22:31.504Z,100497.75
2022-09-18T22:24:59.718Z,100491.73
2022-09-18T22:27:27.779Z,100493.23
2022-09-18T22:29:56.179Z,100490.59
2022-09-18T22:32:23.986Z,100490.67
2022-09-18T22:34:52.853Z,100497.27
2022-09-18T22:37:21.109Z,100503.15
2022-09-18T22:39:48.971Z,100509.41
2022-09-18T22:42:17.367Z,100509.78
2022-09-18T22:44:45.132Z,100510.89
2022-09-18T22:47:13.283Z,100513.59
2022-09-18T22:49:41.193Z,100509.04
2022-09-18T22:52:09.148Z,100508.64
2022-09-18T22:54:37.112Z,100509.21
2022-09-18T22:57:05.412Z,100511.98
2022-09-18T22:59:33.225Z,100517.09
2022-09-18T23:02:03.636Z,100516.95
2022-09-18T23:04:32.889Z,100520.36
2022-09-18T23:07:01.376Z,100524.02
2022-09-18T23:09:29.486Z,100524.60
2022-09-18T23:11:57.561Z,100530.86
2022-09-18T23:14:27.032Z,100529.02
2022-09-18T23:16:55.575Z,100530.85
2022-09-18T23:19:25.387Z,100532.23
2022-09-18T23:21:53.757Z,100530.42
2022-09-18T23:24:22.165Z,100521.57
2022-09-18T23:26:51.167Z,100520.85
2022-09-18T23:29:20.430Z,100522.17
2022-09-18T23:31:50.229Z,100522.84
2022-09-18T23:34:19.426Z,100528.91
2022-09-18T23:36:48.231Z,100526.88
2022-09-18T23:39:17.664Z,100521.39
2022-09-18T23:41:45.790Z,100523.41
2022-09-18T23:44:15.109Z,100523.57
2022-09-18T23:46:43.599Z,100519.42
2022-09-18T23:49:12.471Z,100514.27
2022-09-18T23:51:42.100Z,100511.17
2022-09-18T23:54:13.536Z,100510.38
2022-09-18T23:56:41.618Z,100512.93
2022-09-18T23:59:09.972Z,100511.27
